Dongsheng, China
Current Conditions -  °F | °C
As of 5:00 PM on Friday 19 Dec 2014 (Local Time) from ZBHH Reporting Station
Clear Clear  
Wind Chill:   Ceiling: Unl
Heat Index: 16°   Visibility: 6mi
Dew Point: -2°   Wind: 16mph
Humidity: 45%   Direction: 340°NNW
Pressure: 30.3"   Gusts: NA
Location:  39.81°N, 109.99°E
Report Text: ZBHH 190900Z 34007MPS CAVOK M09/M19 Q1026 NOSIG
Loading
Personal Weather Stations






























Interactive Weather Map New forecast layout! Learn more

10-Day Weather Forecast

Advertisements
Track Severe Weather on mobile